Hauptseite
METAR-TAF:

METAR-TAF

Flughäfen :

Flughafen Lille

Lille, Frankreich

Breite: 50-34N, Länge: 003-06E, Höhe: 48 m

Beobachtung

Neuester Wetterbericht von vor 25 Minuten, um 13:00 UTC
Wind 15 kt aus West, variierte zwischen West/Südwest und West/Nordwest
Temperatur 25°C
Luftfeuchtigkeit 39%
Luftdruck 1017 hPa
Sichtweite 10 km oder mehr
keine Wolken unter 1500 m und keine Kumulonimbus oder Gewitterwolken

METAR: LFQQ 171300Z AUTO 27015KT 240V300 CAVOK 25/10 Q1017 NOSIG

Zeit: 15:25 (13:25 UTC)

Prognose

Neuester Wetterbericht von vor 2 Stunden und 25 Minuten, um 11:00 UTC
Gültige Prognose vom 17 um 12 UTC bis 18 um 18 UTC
Wind 10 kt aus West
Sichtweite 10 km oder mehr
keine Wolken unter 1500 m und keine Kumulonimbus oder Gewitterwolken

TAF: LFQQ 171100Z 1712/1818 26010KT CAVOK

Wetterbeobachtungen und Prognosen von mehr als 4000 Flughäfen (METAR und TAF Bericht).

Die verfügbaren Stationen werden durch gelbe und rote Markierungen auf der Karte dargestellt.

Führen Sie die Maus auf sie, um den Namen der Station zu sehen.

Darauf klicken, um die Beobachtung von Wetterbeobachtungen und Prognosen zu sehen.

Um die Karte zu ändern : klicken Sie auf den grünen Tasten mit einem schwarzen Kreuz Zum Vergrößern, auf den grünen Button mit einem Gedankenstrich zu verkleinern, oder auf die grünen Pfeile für benachbarte Karten.


METAR-TAF: